sensor_id;sensor_type;location;lat;lon;timestamp;P1;durP1;ratioP1;P2;durP2;ratioP2
40871;SDS011;26591;43.264;26.940;2023-02-01T00:01:43;16.75;;;11.18;;
40871;SDS011;26591;43.264;26.940;2023-02-01T00:04:12;18.05;;;11.80;;
40871;SDS011;26591;43.264;26.940;2023-02-01T00:06:37;19.05;;;11.68;;
40871;SDS011;26591;43.264;26.940;2023-02-01T00:09:03;17.90;;;11.90;;
40871;SDS011;26591;43.264;26.940;2023-02-01T00:11:29;21.73;;;11.27;;
40871;SDS011;26591;43.264;26.940;2023-02-01T00:13:54;17.90;;;11.90;;
40871;SDS011;26591;43.264;26.940;2023-02-01T00:16:21;17.98;;;10.57;;
40871;SDS011;26591;43.264;26.940;2023-02-01T00:18:49;21.00;;;11.80;;
40871;SDS011;26591;43.264;26.940;2023-02-01T00:21:17;18.38;;;12.30;;
40871;SDS011;26591;43.264;26.940;2023-02-01T00:23:44;19.27;;;12.40;;
40871;SDS011;26591;43.264;26.940;2023-02-01T00:26:14;20.15;;;12.75;;
40871;SDS011;26591;43.264;26.940;2023-02-01T00:28:45;19.45;;;12.00;;
40871;SDS011;26591;43.264;26.940;2023-02-01T00:31:11;18.33;;;12.38;;
40871;SDS011;26591;43.264;26.940;2023-02-01T00:33:37;22.67;;;13.07;;
40871;SDS011;26591;43.264;26.940;2023-02-01T00:36:03;19.95;;;11.93;;
40871;SDS011;26591;43.264;26.940;2023-02-01T00:38:33;17.13;;;10.97;;
40871;SDS011;26591;43.264;26.940;2023-02-01T00:41:03;19.25;;;11.68;;
40871;SDS011;26591;43.264;26.940;2023-02-01T00:43:34;21.27;;;12.15;;
40871;SDS011;26591;43.264;26.940;2023-02-01T00:46:00;20.65;;;11.07;;
40871;SDS011;26591;43.264;26.940;2023-02-01T00:48:26;17.15;;;11.13;;
40871;SDS011;26591;43.264;26.940;2023-02-01T00:50:52;17.85;;;10.27;;
40871;SDS011;26591;43.264;26.940;2023-02-01T00:53:17;19.65;;;9.68;;
40871;SDS011;26591;43.264;26.940;2023-02-01T00:55:47;14.80;;;11.07;;
40871;SDS011;26591;43.264;26.940;2023-02-01T00:58:13;15.65;;;10.07;;
40871;SDS011;26591;43.264;26.940;2023-02-01T01:00:38;16.33;;;10.45;;
40871;SDS011;26591;43.264;26.940;2023-02-01T01:03:04;16.05;;;10.80;;
40871;SDS011;26591;43.264;26.940;2023-02-01T01:05:49;17.23;;;9.75;;
40871;SDS011;26591;43.264;26.940;2023-02-01T01:08:15;15.00;;;9.75;;
40871;SDS011;26591;43.264;26.940;2023-02-01T01:10:41;17.05;;;11.30;;
40871;SDS011;26591;43.264;26.940;2023-02-01T01:13:07;15.65;;;9.50;;
40871;SDS011;26591;43.264;26.940;2023-02-01T01:15:37;13.55;;;9.57;;
40871;SDS011;26591;43.264;26.940;2023-02-01T01:18:04;13.18;;;8.38;;
40871;SDS011;26591;43.264;26.940;2023-02-01T01:20:29;13.00;;;8.88;;
40871;SDS011;26591;43.264;26.940;2023-02-01T01:22:55;14.07;;;8.25;;
40871;SDS011;26591;43.264;26.940;2023-02-01T01:25:20;15.20;;;8.50;;
40871;SDS011;26591;43.264;26.940;2023-02-01T01:27:46;10.43;;;6.90;;
40871;SDS011;26591;43.264;26.940;2023-02-01T01:30:12;13.35;;;8.20;;
40871;SDS011;26591;43.264;26.940;2023-02-01T01:32:37;15.48;;;9.05;;
40871;SDS011;26591;43.264;26.940;2023-02-01T01:35:03;11.90;;;7.90;;
40871;SDS011;26591;43.264;26.940;2023-02-01T01:37:29;14.88;;;8.18;;
40871;SDS011;26591;43.264;26.940;2023-02-01T01:39:54;13.43;;;8.70;;
40871;SDS011;26591;43.264;26.940;2023-02-01T01:42:21;14.40;;;8.88;;
40871;SDS011;26591;43.264;26.940;2023-02-01T01:45:06;13.48;;;8.18;;
40871;SDS011;26591;43.264;26.940;2023-02-01T01:47:45;13.00;;;8.73;;
40871;SDS011;26591;43.264;26.940;2023-02-01T01:50:40;12.60;;;8.13;;
40871;SDS011;26591;43.264;26.940;2023-02-01T01:53:10;15.00;;;8.35;;
40871;SDS011;26591;43.264;26.940;2023-02-01T01:55:39;13.90;;;8.47;;
40871;SDS011;26591;43.264;26.940;2023-02-01T01:58:10;12.05;;;8.30;;
40871;SDS011;26591;43.264;26.940;2023-02-01T02:00:39;12.48;;;7.47;;
40871;SDS011;26591;43.264;26.940;2023-02-01T02:03:47;15.65;;;8.57;;
40871;SDS011;26591;43.264;26.940;2023-02-01T02:06:02;14.18;;;8.52;;
40871;SDS011;26591;43.264;26.940;2023-02-01T02:08:45;13.50;;;8.07;;
40871;SDS011;26591;43.264;26.940;2023-02-01T02:11:11;13.70;;;8.98;;
40871;SDS011;26591;43.264;26.940;2023-02-01T02:45:58;12.00;;;8.20;;
40871;SDS011;26591;43.264;26.940;2023-02-01T02:48:58;10.90;;;7.15;;
40871;SDS011;26591;43.264;26.940;2023-02-01T02:51:32;12.43;;;8.07;;
40871;SDS011;26591;43.264;26.940;2023-02-01T02:54:23;12.63;;;7.93;;
40871;SDS011;26591;43.264;26.940;2023-02-01T02:57:13;12.00;;;7.63;;
40871;SDS011;26591;43.264;26.940;2023-02-01T03:00:02;12.75;;;7.80;;
40871;SDS011;26591;43.264;26.940;2023-02-01T03:02:50;12.50;;;7.57;;
40871;SDS011;26591;43.264;26.940;2023-02-01T03:05:35;13.02;;;8.65;;
40871;SDS011;26591;43.264;26.940;2023-02-01T03:16:11;14.73;;;8.38;;
40871;SDS011;26591;43.264;26.940;2023-02-01T03:18:44;12.48;;;8.48;;
40871;SDS011;26591;43.264;26.940;2023-02-01T03:21:23;11.13;;;7.47;;
40871;SDS011;26591;43.264;26.940;2023-02-01T03:24:02;15.82;;;9.65;;
40871;SDS011;26591;43.264;26.940;2023-02-01T03:26:30;10.90;;;7.93;;
40871;SDS011;26591;43.264;26.940;2023-02-01T03:29:07;15.00;;;9.15;;
40871;SDS011;26591;43.264;26.940;2023-02-01T03:31:37;12.13;;;8.07;;
40871;SDS011;26591;43.264;26.940;2023-02-01T03:34:03;17.33;;;9.05;;
40871;SDS011;26591;43.264;26.940;2023-02-01T03:36:35;13.98;;;9.50;;
40871;SDS011;26591;43.264;26.940;2023-02-01T03:41:43;11.85;;;8.35;;
40871;SDS011;26591;43.264;26.940;2023-02-01T03:44:16;11.82;;;8.15;;
40871;SDS011;26591;43.264;26.940;2023-02-01T03:46:50;15.07;;;8.50;;
40871;SDS011;26591;43.264;26.940;2023-02-01T03:49:30;18.35;;;10.75;;
40871;SDS011;26591;43.264;26.940;2023-02-01T03:52:00;13.27;;;8.88;;
40871;SDS011;26591;43.264;26.940;2023-02-01T03:54:28;13.95;;;8.77;;
40871;SDS011;26591;43.264;26.940;2023-02-01T03:56:55;14.40;;;9.07;;
40871;SDS011;26591;43.264;26.940;2023-02-01T03:59:24;11.43;;;8.63;;
40871;SDS011;26591;43.264;26.940;2023-02-01T04:01:50;15.45;;;8.68;;
40871;SDS011;26591;43.264;26.940;2023-02-01T04:04:16;13.13;;;8.20;;
40871;SDS011;26591;43.264;26.940;2023-02-01T04:06:50;16.00;;;10.30;;
40871;SDS011;26591;43.264;26.940;2023-02-01T04:09:16;15.48;;;9.80;;
40871;SDS011;26591;43.264;26.940;2023-02-01T04:11:42;14.43;;;8.18;;
40871;SDS011;26591;43.264;26.940;2023-02-01T04:14:13;14.23;;;9.80;;
40871;SDS011;26591;43.264;26.940;2023-02-01T04:16:39;17.02;;;10.38;;
40871;SDS011;26591;43.264;26.940;2023-02-01T04:19:04;14.73;;;9.00;;
40871;SDS011;26591;43.264;26.940;2023-02-01T04:21:30;16.85;;;9.70;;
40871;SDS011;26591;43.264;26.940;2023-02-01T04:23:55;13.30;;;9.25;;
40871;SDS011;26591;43.264;26.940;2023-02-01T04:26:21;13.57;;;9.45;;
40871;SDS011;26591;43.264;26.940;2023-02-01T04:28:46;14.27;;;9.93;;
40871;SDS011;26591;43.264;26.940;2023-02-01T04:31:15;14.07;;;9.70;;
40871;SDS011;26591;43.264;26.940;2023-02-01T04:33:49;13.90;;;9.75;;
40871;SDS011;26591;43.264;26.940;2023-02-01T04:36:14;14.65;;;9.38;;
40871;SDS011;26591;43.264;26.940;2023-02-01T04:38:40;12.50;;;7.88;;
40871;SDS011;26591;43.264;26.940;2023-02-01T04:41:05;13.10;;;8.45;;
40871;SDS011;26591;43.264;26.940;2023-02-01T04:43:31;15.38;;;9.60;;
40871;SDS011;26591;43.264;26.940;2023-02-01T04:45:56;14.30;;;9.10;;
40871;SDS011;26591;43.264;26.940;2023-02-01T04:48:22;13.38;;;9.57;;
40871;SDS011;26591;43.264;26.940;2023-02-01T04:50:48;13.98;;;9.32;;
40871;SDS011;26591;43.264;26.940;2023-02-01T04:53:16;13.82;;;9.02;;
40871;SDS011;26591;43.264;26.940;2023-02-01T04:55:43;13.43;;;9.35;;
40871;SDS011;26591;43.264;26.940;2023-02-01T04:58:09;13.48;;;9.52;;
40871;SDS011;26591;43.264;26.940;2023-02-01T05:00:35;13.73;;;9.73;;
40871;SDS011;26591;43.264;26.940;2023-02-01T05:03:01;17.60;;;10.32;;
40871;SDS011;26591;43.264;26.940;2023-02-01T05:05:28;12.35;;;9.00;;
40871;SDS011;26591;43.264;26.940;2023-02-01T05:07:54;19.35;;;10.45;;
40871;SDS011;26591;43.264;26.940;2023-02-01T05:10:20;16.08;;;9.35;;
40871;SDS011;26591;43.264;26.940;2023-02-01T05:12:46;24.33;;;12.15;;
40871;SDS011;26591;43.264;26.940;2023-02-01T05:15:30;16.35;;;9.65;;
40871;SDS011;26591;43.264;26.940;2023-02-01T05:17:56;16.13;;;10.70;;
40871;SDS011;26591;43.264;26.940;2023-02-01T05:20:22;17.90;;;10.82;;
40871;SDS011;26591;43.264;26.940;2023-02-01T05:22:49;18.58;;;12.45;;
40871;SDS011;26591;43.264;26.940;2023-02-01T05:25:14;12.75;;;9.27;;
40871;SDS011;26591;43.264;26.940;2023-02-01T05:27:40;14.30;;;8.65;;
40871;SDS011;26591;43.264;26.940;2023-02-01T05:30:06;11.50;;;8.30;;
40871;SDS011;26591;43.264;26.940;2023-02-01T05:32:34;17.45;;;10.20;;
40871;SDS011;26591;43.264;26.940;2023-02-01T05:34:59;16.80;;;10.43;;
40871;SDS011;26591;43.264;26.940;2023-02-01T05:37:25;12.10;;;9.45;;
40871;SDS011;26591;43.264;26.940;2023-02-01T05:39:50;10.82;;;8.23;;
40871;SDS011;26591;43.264;26.940;2023-02-01T05:42:16;11.73;;;7.63;;
40871;SDS011;26591;43.264;26.940;2023-02-01T05:44:41;17.02;;;7.90;;
40871;SDS011;26591;43.264;26.940;2023-02-01T05:47:07;13.73;;;8.20;;
40871;SDS011;26591;43.264;26.940;2023-02-01T05:49:32;11.80;;;7.68;;
40871;SDS011;26591;43.264;26.940;2023-02-01T05:51:58;12.90;;;8.45;;
40871;SDS011;26591;43.264;26.940;2023-02-01T05:54:25;11.75;;;7.32;;
40871;SDS011;26591;43.264;26.940;2023-02-01T05:56:50;8.98;;;6.47;;
40871;SDS011;26591;43.264;26.940;2023-02-01T05:59:16;15.88;;;8.00;;
40871;SDS011;26591;43.264;26.940;2023-02-01T06:01:41;10.93;;;6.82;;
40871;SDS011;26591;43.264;26.940;2023-02-01T06:04:07;9.90;;;6.45;;
40871;SDS011;26591;43.264;26.940;2023-02-01T06:06:32;10.25;;;5.95;;
40871;SDS011;26591;43.264;26.940;2023-02-01T06:08:59;9.05;;;4.47;;
40871;SDS011;26591;43.264;26.940;2023-02-01T06:11:25;10.00;;;6.15;;
40871;SDS011;26591;43.264;26.940;2023-02-01T06:13:50;10.50;;;5.60;;
40871;SDS011;26591;43.264;26.940;2023-02-01T06:16:16;12.07;;;7.63;;
40871;SDS011;26591;43.264;26.940;2023-02-01T06:18:41;12.25;;;7.03;;
40871;SDS011;26591;43.264;26.940;2023-02-01T06:21:07;14.10;;;7.25;;
40871;SDS011;26591;43.264;26.940;2023-02-01T06:23:33;9.27;;;6.63;;
40871;SDS011;26591;43.264;26.940;2023-02-01T06:26:00;11.05;;;6.82;;
40871;SDS011;26591;43.264;26.940;2023-02-01T06:28:28;10.68;;;6.18;;
40871;SDS011;26591;43.264;26.940;2023-02-01T06:30:55;10.00;;;5.65;;
40871;SDS011;26591;43.264;26.940;2023-02-01T06:33:23;12.60;;;5.35;;
40871;SDS011;26591;43.264;26.940;2023-02-01T06:35:58;13.57;;;5.93;;
40871;SDS011;26591;43.264;26.940;2023-02-01T06:38:24;7.25;;;5.72;;
40871;SDS011;26591;43.264;26.940;2023-02-01T06:40:54;8.77;;;4.93;;
40871;SDS011;26591;43.264;26.940;2023-02-01T06:43:24;12.75;;;6.43;;
40871;SDS011;26591;43.264;26.940;2023-02-01T06:45:51;10.40;;;5.63;;
40871;SDS011;26591;43.264;26.940;2023-02-01T06:48:17;15.95;;;6.65;;
40871;SDS011;26591;43.264;26.940;2023-02-01T06:50:43;8.63;;;5.20;;
40871;SDS011;26591;43.264;26.940;2023-02-01T06:53:08;10.88;;;6.32;;
40871;SDS011;26591;43.264;26.940;2023-02-01T06:55:34;11.73;;;5.20;;
40871;SDS011;26591;43.264;26.940;2023-02-01T06:58:00;10.27;;;6.13;;
40871;SDS011;26591;43.264;26.940;2023-02-01T07:00:27;13.75;;;6.45;;
40871;SDS011;26591;43.264;26.940;2023-02-01T07:02:53;16.60;;;6.97;;
40871;SDS011;26591;43.264;26.940;2023-02-01T07:05:19;7.88;;;4.93;;
40871;SDS011;26591;43.264;26.940;2023-02-01T07:07:44;9.55;;;5.15;;
40871;SDS011;26591;43.264;26.940;2023-02-01T07:10:10;11.02;;;6.50;;
40871;SDS011;26591;43.264;26.940;2023-02-01T07:12:35;10.55;;;6.03;;
40871;SDS011;26591;43.264;26.940;2023-02-01T07:15:01;11.15;;;5.43;;
40871;SDS011;26591;43.264;26.940;2023-02-01T07:17:28;10.02;;;5.68;;
40871;SDS011;26591;43.264;26.940;2023-02-01T07:19:54;9.88;;;5.85;;
40871;SDS011;26591;43.264;26.940;2023-02-01T07:22:20;17.38;;;6.15;;
40871;SDS011;26591;43.264;26.940;2023-02-01T07:24:46;9.00;;;5.28;;
40871;SDS011;26591;43.264;26.940;2023-02-01T07:27:12;10.20;;;5.45;;
40871;SDS011;26591;43.264;26.940;2023-02-01T07:29:37;10.10;;;6.28;;
40871;SDS011;26591;43.264;26.940;2023-02-01T07:32:03;11.25;;;7.13;;
40871;SDS011;26591;43.264;26.940;2023-02-01T07:34:29;10.05;;;6.72;;
40871;SDS011;26591;43.264;26.940;2023-02-01T07:36:55;9.93;;;5.95;;
40871;SDS011;26591;43.264;26.940;2023-02-01T07:39:21;9.48;;;5.95;;
40871;SDS011;26591;43.264;26.940;2023-02-01T07:41:47;17.08;;;7.10;;
40871;SDS011;26591;43.264;26.940;2023-02-01T07:44:12;11.68;;;6.30;;
40871;SDS011;26591;43.264;26.940;2023-02-01T07:46:38;19.58;;;9.55;;
40871;SDS011;26591;43.264;26.940;2023-02-01T07:49:04;13.10;;;8.60;;
40871;SDS011;26591;43.264;26.940;2023-02-01T07:51:30;12.10;;;8.68;;
40871;SDS011;26591;43.264;26.940;2023-02-01T07:53:55;10.63;;;7.55;;
40871;SDS011;26591;43.264;26.940;2023-02-01T07:56:21;12.77;;;7.65;;
40871;SDS011;26591;43.264;26.940;2023-02-01T07:58:50;12.27;;;7.72;;
40871;SDS011;26591;43.264;26.940;2023-02-01T08:01:18;12.82;;;7.68;;
40871;SDS011;26591;43.264;26.940;2023-02-01T08:03:46;12.90;;;7.70;;
40871;SDS011;26591;43.264;26.940;2023-02-01T08:06:16;13.18;;;7.15;;
40871;SDS011;26591;43.264;26.940;2023-02-01T08:08:42;10.75;;;6.55;;
40871;SDS011;26591;43.264;26.940;2023-02-01T08:11:10;12.35;;;7.28;;
40871;SDS011;26591;43.264;26.940;2023-02-01T08:13:35;12.75;;;6.95;;
40871;SDS011;26591;43.264;26.940;2023-02-01T08:16:05;10.23;;;6.70;;
40871;SDS011;26591;43.264;26.940;2023-02-01T08:18:32;13.48;;;8.98;;
40871;SDS011;26591;43.264;26.940;2023-02-01T08:21:03;14.40;;;8.90;;
40871;SDS011;26591;43.264;26.940;2023-02-01T08:23:29;9.13;;;6.47;;
40871;SDS011;26591;43.264;26.940;2023-02-01T08:26:03;11.38;;;7.30;;
40871;SDS011;26591;43.264;26.940;2023-02-01T08:28:33;14.55;;;6.78;;
40871;SDS011;26591;43.264;26.940;2023-02-01T08:30:59;13.15;;;6.38;;
40871;SDS011;26591;43.264;26.940;2023-02-01T08:33:28;9.63;;;7.00;;
40871;SDS011;26591;43.264;26.940;2023-02-01T08:35:54;12.88;;;7.28;;
40871;SDS011;26591;43.264;26.940;2023-02-01T08:38:19;11.25;;;6.05;;
40871;SDS011;26591;43.264;26.940;2023-02-01T08:40:45;10.23;;;6.57;;
40871;SDS011;26591;43.264;26.940;2023-02-01T08:43:11;14.82;;;8.70;;
40871;SDS011;26591;43.264;26.940;2023-02-01T08:45:37;12.02;;;6.07;;
40871;SDS011;26591;43.264;26.940;2023-02-01T08:48:02;11.57;;;6.90;;
40871;SDS011;26591;43.264;26.940;2023-02-01T08:50:28;11.93;;;6.68;;
40871;SDS011;26591;43.264;26.940;2023-02-01T08:52:53;11.88;;;5.50;;
40871;SDS011;26591;43.264;26.940;2023-02-01T08:55:19;8.90;;;5.60;;
40871;SDS011;26591;43.264;26.940;2023-02-01T08:57:45;9.48;;;5.90;;
40871;SDS011;26591;43.264;26.940;2023-02-01T09:00:11;10.05;;;6.13;;
40871;SDS011;26591;43.264;26.940;2023-02-01T09:02:40;8.93;;;6.30;;
40871;SDS011;26591;43.264;26.940;2023-02-01T09:05:12;14.30;;;5.70;;
40871;SDS011;26591;43.264;26.940;2023-02-01T09:07:41;12.68;;;6.15;;
40871;SDS011;26591;43.264;26.940;2023-02-01T09:10:07;16.10;;;6.05;;
40871;SDS011;26591;43.264;26.940;2023-02-01T09:12:36;18.85;;;6.90;;
40871;SDS011;26591;43.264;26.940;2023-02-01T09:15:02;10.93;;;5.80;;
40871;SDS011;26591;43.264;26.940;2023-02-01T09:17:28;12.45;;;5.55;;
40871;SDS011;26591;43.264;26.940;2023-02-01T09:19:54;14.98;;;6.18;;
40871;SDS011;26591;43.264;26.940;2023-02-01T09:22:20;15.40;;;5.13;;
40871;SDS011;26591;43.264;26.940;2023-02-01T09:24:46;15.80;;;5.57;;
40871;SDS011;26591;43.264;26.940;2023-02-01T09:27:12;41.28;;;7.10;;
40871;SDS011;26591;43.264;26.940;2023-02-01T09:29:37;14.68;;;6.03;;
40871;SDS011;26591;43.264;26.940;2023-02-01T09:32:03;21.85;;;6.55;;
40871;SDS011;26591;43.264;26.940;2023-02-01T09:34:29;16.58;;;6.28;;
40871;SDS011;26591;43.264;26.940;2023-02-01T09:37:07;14.00;;;5.78;;
40871;SDS011;26591;43.264;26.940;2023-02-01T09:39:32;13.55;;;5.65;;
40871;SDS011;26591;43.264;26.940;2023-02-01T09:47:23;11.30;;;4.78;;
40871;SDS011;26591;43.264;26.940;2023-02-01T09:52:30;9.75;;;4.43;;
40871;SDS011;26591;43.264;26.940;2023-02-01T09:55:01;9.02;;;4.10;;
40871;SDS011;26591;43.264;26.940;2023-02-01T09:57:40;19.15;;;4.10;;
40871;SDS011;26591;43.264;26.940;2023-02-01T10:00:16;10.55;;;4.65;;
40871;SDS011;26591;43.264;26.940;2023-02-01T10:02:46;8.90;;;3.80;;
40871;SDS011;26591;43.264;26.940;2023-02-01T10:05:16;14.32;;;5.05;;
40871;SDS011;26591;43.264;26.940;2023-02-01T10:08:12;6.40;;;3.65;;
40871;SDS011;26591;43.264;26.940;2023-02-01T10:11:04;11.73;;;4.50;;
40871;SDS011;26591;43.264;26.940;2023-02-01T10:14:18;9.27;;;4.65;;
40871;SDS011;26591;43.264;26.940;2023-02-01T10:22:10;8.73;;;5.18;;
40871;SDS011;26591;43.264;26.940;2023-02-01T10:24:41;8.40;;;5.65;;
40871;SDS011;26591;43.264;26.940;2023-02-01T10:29:44;18.00;;;5.93;;
40871;SDS011;26591;43.264;26.940;2023-02-01T10:32:14;10.55;;;4.85;;
40871;SDS011;26591;43.264;26.940;2023-02-01T10:34:48;7.68;;;5.20;;
40871;SDS011;26591;43.264;26.940;2023-02-01T10:37:27;8.55;;;4.30;;
40871;SDS011;26591;43.264;26.940;2023-02-01T10:39:57;11.20;;;4.40;;
40871;SDS011;26591;43.264;26.940;2023-02-01T10:42:27;7.40;;;4.80;;
40871;SDS011;26591;43.264;26.940;2023-02-01T10:44:56;8.63;;;4.25;;
40871;SDS011;26591;43.264;26.940;2023-02-01T10:47:24;8.68;;;4.47;;
40871;SDS011;26591;43.264;26.940;2023-02-01T10:50:33;11.27;;;4.32;;
40871;SDS011;26591;43.264;26.940;2023-02-01T10:55:48;10.85;;;3.60;;
40871;SDS011;26591;43.264;26.940;2023-02-01T10:58:16;15.20;;;4.65;;
40871;SDS011;26591;43.264;26.940;2023-02-01T11:00:44;4.60;;;3.10;;
40871;SDS011;26591;43.264;26.940;2023-02-01T11:08:52;6.82;;;3.20;;
40871;SDS011;26591;43.264;26.940;2023-02-01T11:11:19;7.18;;;3.25;;
40871;SDS011;26591;43.264;26.940;2023-02-01T11:13:51;7.13;;;3.70;;
40871;SDS011;26591;43.264;26.940;2023-02-01T11:16:18;9.90;;;3.42;;
40871;SDS011;26591;43.264;26.940;2023-02-01T11:18:44;12.82;;;4.40;;
40871;SDS011;26591;43.264;26.940;2023-02-01T11:21:17;13.10;;;4.35;;
40871;SDS011;26591;43.264;26.940;2023-02-01T11:23:43;11.40;;;4.20;;
40871;SDS011;26591;43.264;26.940;2023-02-01T11:26:12;8.15;;;4.68;;
40871;SDS011;26591;43.264;26.940;2023-02-01T11:28:40;13.07;;;6.05;;
40871;SDS011;26591;43.264;26.940;2023-02-01T11:31:15;7.07;;;4.55;;
40871;SDS011;26591;43.264;26.940;2023-02-01T11:33:44;5.10;;;3.60;;
40871;SDS011;26591;43.264;26.940;2023-02-01T11:36:15;6.20;;;3.65;;
40871;SDS011;26591;43.264;26.940;2023-02-01T11:38:47;12.18;;;3.70;;
40871;SDS011;26591;43.264;26.940;2023-02-01T11:42:01;12.93;;;3.85;;
40871;SDS011;26591;43.264;26.940;2023-02-01T11:44:22;34.00;;;5.78;;
40871;SDS011;26591;43.264;26.940;2023-02-01T11:46:55;4.95;;;3.38;;
40871;SDS011;26591;43.264;26.940;2023-02-01T11:49:25;9.75;;;3.83;;
40871;SDS011;26591;43.264;26.940;2023-02-01T11:54:36;12.13;;;4.05;;
40871;SDS011;26591;43.264;26.940;2023-02-01T12:05:59;10.05;;;3.47;;
40871;SDS011;26591;43.264;26.940;2023-02-01T12:19:58;13.68;;;7.05;;
40871;SDS011;26591;43.264;26.940;2023-02-01T12:28:20;7.20;;;2.50;;
40871;SDS011;26591;43.264;26.940;2023-02-01T12:31:02;6.50;;;3.40;;
40871;SDS011;26591;43.264;26.940;2023-02-01T12:39:15;21.80;;;4.65;;
40871;SDS011;26591;43.264;26.940;2023-02-01T12:44:35;6.95;;;2.83;;
40871;SDS011;26591;43.264;26.940;2023-02-01T12:47:15;8.75;;;3.80;;
40871;SDS011;26591;43.264;26.940;2023-02-01T12:49:56;8.98;;;3.53;;
40871;SDS011;26591;43.264;26.940;2023-02-01T12:52:34;6.30;;;3.15;;
40871;SDS011;26591;43.264;26.940;2023-02-01T12:57:40;4.93;;;2.83;;
40871;SDS011;26591;43.264;26.940;2023-02-01T13:03:06;6.68;;;3.67;;
40871;SDS011;26591;43.264;26.940;2023-02-01T13:08:43;6.97;;;4.32;;
40871;SDS011;26591;43.264;26.940;2023-02-01T13:11:29;17.88;;;5.85;;
40871;SDS011;26591;43.264;26.940;2023-02-01T13:14:00;13.63;;;6.63;;
40871;SDS011;26591;43.264;26.940;2023-02-01T13:16:27;15.07;;;6.38;;
40871;SDS011;26591;43.264;26.940;2023-02-01T13:19:09;15.05;;;5.40;;
40871;SDS011;26591;43.264;26.940;2023-02-01T13:21:42;17.70;;;6.05;;
40871;SDS011;26591;43.264;26.940;2023-02-01T13:24:20;15.00;;;6.72;;
40871;SDS011;26591;43.264;26.940;2023-02-01T13:27:04;10.73;;;4.72;;
40871;SDS011;26591;43.264;26.940;2023-02-01T13:29:30;12.15;;;5.65;;
40871;SDS011;26591;43.264;26.940;2023-02-01T13:32:14;13.73;;;7.65;;
40871;SDS011;26591;43.264;26.940;2023-02-01T13:45:42;18.73;;;6.55;;
40871;SDS011;26591;43.264;26.940;2023-02-01T13:48:17;20.27;;;7.90;;
40871;SDS011;26591;43.264;26.940;2023-02-01T13:50:49;21.17;;;5.10;;
40871;SDS011;26591;43.264;26.940;2023-02-01T13:53:30;15.50;;;6.97;;
40871;SDS011;26591;43.264;26.940;2023-02-01T13:56:18;18.10;;;5.68;;
40871;SDS011;26591;43.264;26.940;2023-02-01T13:58:45;21.85;;;7.38;;
40871;SDS011;26591;43.264;26.940;2023-02-01T14:09:09;14.68;;;7.38;;
40871;SDS011;26591;43.264;26.940;2023-02-01T14:16:41;15.60;;;9.43;;
40871;SDS011;26591;43.264;26.940;2023-02-01T14:19:08;13.52;;;8.38;;
40871;SDS011;26591;43.264;26.940;2023-02-01T14:21:47;17.05;;;7.25;;
40871;SDS011;26591;43.264;26.940;2023-02-01T14:24:21;29.52;;;7.75;;
40871;SDS011;26591;43.264;26.940;2023-02-01T14:26:54;18.13;;;7.85;;
40871;SDS011;26591;43.264;26.940;2023-02-01T14:29:32;25.88;;;13.27;;
40871;SDS011;26591;43.264;26.940;2023-02-01T14:32:18;30.23;;;17.80;;
40871;SDS011;26591;43.264;26.940;2023-02-01T14:47:42;16.40;;;7.45;;
40871;SDS011;26591;43.264;26.940;2023-02-01T15:01:21;15.88;;;9.75;;
40871;SDS011;26591;43.264;26.940;2023-02-01T15:04:12;35.17;;;15.25;;
40871;SDS011;26591;43.264;26.940;2023-02-01T15:06:50;37.65;;;16.08;;
40871;SDS011;26591;43.264;26.940;2023-02-01T15:12:02;44.58;;;20.95;;
40871;SDS011;26591;43.264;26.940;2023-02-01T15:17:27;45.80;;;23.30;;
40871;SDS011;26591;43.264;26.940;2023-02-01T15:20:19;44.38;;;23.75;;
40871;SDS011;26591;43.264;26.940;2023-02-01T15:23:02;42.00;;;24.70;;
40871;SDS011;26591;43.264;26.940;2023-02-01T15:25:31;46.83;;;25.67;;
40871;SDS011;26591;43.264;26.940;2023-02-01T15:27:59;39.72;;;24.48;;
40871;SDS011;26591;43.264;26.940;2023-02-01T15:30:26;45.47;;;26.95;;
40871;SDS011;26591;43.264;26.940;2023-02-01T15:33:03;65.65;;;34.60;;
40871;SDS011;26591;43.264;26.940;2023-02-01T15:40:55;57.75;;;32.17;;
40871;SDS011;26591;43.264;26.940;2023-02-01T15:43:21;77.85;;;44.00;;
40871;SDS011;26591;43.264;26.940;2023-02-01T15:45:49;63.72;;;38.70;;
40871;SDS011;26591;43.264;26.940;2023-02-01T15:48:22;83.60;;;48.25;;
40871;SDS011;26591;43.264;26.940;2023-02-01T15:50:50;89.78;;;46.40;;
40871;SDS011;26591;43.264;26.940;2023-02-01T15:53:20;64.70;;;38.83;;
40871;SDS011;26591;43.264;26.940;2023-02-01T15:55:52;68.75;;;37.67;;
40871;SDS011;26591;43.264;26.940;2023-02-01T15:58:21;90.95;;;46.22;;
40871;SDS011;26591;43.264;26.940;2023-02-01T16:00:52;40.20;;;23.55;;
40871;SDS011;26591;43.264;26.940;2023-02-01T16:03:40;28.45;;;16.08;;
40871;SDS011;26591;43.264;26.940;2023-02-01T16:08:52;86.25;;;43.80;;
40871;SDS011;26591;43.264;26.940;2023-02-01T16:11:22;57.28;;;31.02;;
40871;SDS011;26591;43.264;26.940;2023-02-01T16:14:11;54.50;;;28.27;;
40871;SDS011;26591;43.264;26.940;2023-02-01T16:16:36;54.60;;;29.95;;
40871;SDS011;26591;43.264;26.940;2023-02-01T16:19:02;44.97;;;29.48;;
40871;SDS011;26591;43.264;26.940;2023-02-01T16:21:27;55.55;;;35.25;;
40871;SDS011;26591;43.264;26.940;2023-02-01T16:23:53;37.35;;;22.27;;
40871;SDS011;26591;43.264;26.940;2023-02-01T16:26:19;21.45;;;11.93;;
40871;SDS011;26591;43.264;26.940;2023-02-01T16:28:45;24.40;;;12.90;;
40871;SDS011;26591;43.264;26.940;2023-02-01T16:31:14;24.30;;;14.48;;
40871;SDS011;26591;43.264;26.940;2023-02-01T16:33:45;23.95;;;14.48;;
40871;SDS011;26591;43.264;26.940;2023-02-01T16:36:14;26.83;;;12.93;;
40871;SDS011;26591;43.264;26.940;2023-02-01T16:38:41;25.58;;;12.05;;
40871;SDS011;26591;43.264;26.940;2023-02-01T16:41:06;17.20;;;10.13;;
40871;SDS011;26591;43.264;26.940;2023-02-01T16:43:33;16.33;;;9.25;;
40871;SDS011;26591;43.264;26.940;2023-02-01T16:45:59;15.23;;;8.27;;
40871;SDS011;26591;43.264;26.940;2023-02-01T16:48:33;21.63;;;11.63;;
40871;SDS011;26591;43.264;26.940;2023-02-01T16:51:02;23.35;;;10.00;;
40871;SDS011;26591;43.264;26.940;2023-02-01T16:53:41;17.55;;;11.13;;
40871;SDS011;26591;43.264;26.940;2023-02-01T16:56:12;20.45;;;12.07;;
40871;SDS011;26591;43.264;26.940;2023-02-01T16:58:45;46.40;;;20.55;;
40871;SDS011;26591;43.264;26.940;2023-02-01T17:01:12;36.47;;;21.70;;
40871;SDS011;26591;43.264;26.940;2023-02-01T17:03:39;15.45;;;8.90;;
40871;SDS011;26591;43.264;26.940;2023-02-01T17:06:06;13.93;;;8.35;;
40871;SDS011;26591;43.264;26.940;2023-02-01T17:08:35;13.43;;;7.18;;
40871;SDS011;26591;43.264;26.940;2023-02-01T17:11:03;11.93;;;7.00;;
40871;SDS011;26591;43.264;26.940;2023-02-01T17:13:30;14.25;;;8.25;;
40871;SDS011;26591;43.264;26.940;2023-02-01T17:15:57;16.25;;;9.23;;
40871;SDS011;26591;43.264;26.940;2023-02-01T17:18:28;13.93;;;8.00;;
40871;SDS011;26591;43.264;26.940;2023-02-01T17:20:58;18.92;;;8.70;;
40871;SDS011;26591;43.264;26.940;2023-02-01T17:23:24;13.20;;;7.68;;
40871;SDS011;26591;43.264;26.940;2023-02-01T17:25:51;10.38;;;6.35;;
40871;SDS011;26591;43.264;26.940;2023-02-01T17:28:17;11.82;;;6.15;;
40871;SDS011;26591;43.264;26.940;2023-02-01T17:30:43;11.80;;;6.15;;
40871;SDS011;26591;43.264;26.940;2023-02-01T17:33:26;8.50;;;5.13;;